Portage Glacier, AK

3:09 AM AKDT on October 25, 2014 (GMT -0800)
Portage Glacier | Change Station
CLOSE
Current Station
Airport
Location: Portage Glacier,
Elevation: 102 ft
Nearby Weather Stations

Elev 102 ft 60.78 °N, 148.84 °W | Updated 6 minutes ago

Light Snow
Light Snow Mist
31 °F
Feels Like 24 °F
N
7
Wind Variable Wind from West

Today
High -- | Low -- °F
--% Chance of Precip.
Yesterday
High -- | Low -- °F
Precip. -- in
9:03 AM 6:14 PM
Waxing Crescent, 3% visible
Pressure 29.90 in
Visibility 3.0 miles
Clouds Few 700 ft
Overcast 1300 ft
Windchill 24 °F
Dew Point 31 °F
Humidity 100%
Rainfall 0.00 in
Snow Depth 7 in , 3 in
UV 0 out of 12
Pollen Not available.
Air Quality Not available.
Flu Activity Local Activity
SPECI PATO 251103Z AUTO 28006KT 3SM -SN BR FEW007 OVC013 M01/M01 A2990 RMK AO2 P0000 T10061006 TSNO

More Conditions Fewer Conditions

Pressure 29.90 in
Visibility 3.0 miles
Clouds Few 700 ft
Overcast 1300 ft
Windchill 24 °F
Dew Point 31 °F
Humidity 100%
Rainfall 0.00 in
Snow Depth 7 in , 3 in
UV 0 out of 12
Pollen Not available.
Air Quality Not available.
Flu Activity Local Activity
SPECI PATO 251103Z AUTO 28006KT 3SM -SN BR FEW007 OVC013 M01/M01 A2990 RMK AO2 P0000 T10061006 TSNO

More Conditions Fewer Conditions

10-Day Weather Forecast

Almanac

Astronomy

Oct. 25, 2014 Rise Set
Actual Time 9:03 AM AKDT 6:14 PM AKDT
Civil Twilight 8:18 AM AKDT 6:59 PM AKDT
Nautical Twilight 7:28 AM AKDT 7:49 PM AKDT
Astronomical Twilight 6:38 AM AKDT 8:38 PM AKDT
Moon 11:16 AM AKDT 7:17 PM AKDT
Length of Visible Light 10h 41m
Length of Day
9h 11m
Tomorrow will be 5m 30s shorter.
Waxing Crescent, 3% of the Moon is Illuminated
Today
Waxing Crescent
Oct 30
First Quarter
Nov 6
Full
Nov 14
Last Quarter
Nov 22
New

Today's Extremes

State Highs State Lows

Community

WunderPhotos

Upload Photos

1,764,808 photos uploaded!

Nearby

Snow Depth

Station Depth Elevation
Turnagain Pass 7 in 1880 ft
Grandview 3 in 1100 ft
Summit Creek 3 in 1400 ft
Indian Pass 8 in 2300 ft
Grouse Creek Divide 1 in 700 ft

Earthquake Activity

City Distance Mag. Time & Date
No recent earthquake activity has been reported nearby.
Minimum magnitude displayed is 2.5.

Coastal Water Temperatures

Place Temperature
No Stations Reporting

Nearby Weather Stations